createdAt,value
2018-09-10T00:00:00.120Z,99.99
2018-09-10T00:01:00.117Z,99.99
2018-09-10T00:02:00.108Z,99.99
2018-09-10T00:03:00.027Z,99.99
2018-09-10T00:04:00.115Z,99.99
2018-09-10T00:05:00.111Z,99.99
2018-09-10T00:06:00.096Z,99.99
2018-09-10T00:07:00.023Z,99.99
2018-09-10T00:08:00.115Z,99.99
2018-09-10T00:09:00.096Z,99.99
2018-09-10T00:10:00.033Z,99.99
2018-09-10T00:11:00.031Z,99.99
2018-09-10T00:12:00.030Z,99.99
2018-09-10T00:13:00.123Z,99.99
2018-09-10T00:14:00.010Z,99.99
2018-09-10T00:15:00.031Z,99.99
2018-09-10T00:15:59.990Z,99.99
2018-09-10T00:17:00.123Z,99.99
2018-09-10T00:18:00.123Z,99.99
2018-09-10T00:18:59.991Z,99.99
2018-09-10T00:20:00.125Z,99.99
2018-09-10T00:21:00.125Z,99.99
2018-09-10T00:22:00.070Z,99.99
2018-09-10T00:23:00.138Z,99.99
2018-09-10T00:24:00.141Z,99.99
2018-09-10T00:25:00.072Z,99.99
2018-09-10T00:26:00.141Z,99.99
2018-09-10T00:27:00.069Z,99.99
2018-09-10T00:28:00.143Z,99.99
2018-09-10T00:29:00.158Z,99.99
2018-09-10T00:30:00.142Z,99.99
2018-09-10T00:32:00.044Z,99.99
2018-09-10T00:33:00.095Z,99.99
2018-09-10T00:34:00.145Z,99.99
2018-09-10T00:35:00.135Z,99.99
2018-09-10T00:36:00.047Z,99.99
2018-09-10T00:37:00.082Z,99.99
2018-09-10T00:38:00.136Z,99.99
2018-09-10T00:39:00.097Z,99.99
2018-09-10T00:40:00.137Z,99.99
2018-09-10T00:41:00.083Z,99.99
2018-09-10T00:42:00.154Z,99.99
2018-09-10T00:43:00.155Z,99.99
2018-09-10T00:44:00.081Z,99.99
2018-09-10T00:45:00.084Z,99.99
2018-09-10T00:46:00.088Z,99.99
2018-09-10T00:47:00.156Z,99.99
2018-09-10T00:48:00.089Z,99.99
2018-09-10T00:49:00.091Z,99.99
2018-09-10T00:50:00.162Z,99.99
2018-09-10T00:51:00.157Z,99.99
2018-09-10T00:52:00.144Z,99.99
2018-09-10T00:53:00.108Z,99.99
2018-09-10T00:54:00.116Z,99.99
2018-09-10T00:55:00.137Z,99.99
2018-09-10T00:56:00.022Z,99.99
2018-09-10T00:57:00.124Z,99.99
2018-09-10T00:58:00.144Z,99.99
2018-09-10T00:59:00.087Z,99.99
2018-09-10T01:00:00.090Z,99.99
2018-09-10T01:01:00.120Z,99.99
2018-09-10T01:02:00.043Z,99.99
2018-09-10T01:03:00.115Z,99.99
2018-09-10T01:04:00.044Z,99.99
2018-09-10T01:05:00.063Z,99.99
2018-09-10T01:06:00.068Z,99.99
2018-09-10T01:07:00.122Z,99.99
2018-09-10T01:08:00.118Z,99.99
2018-09-10T01:09:00.042Z,99.99
2018-09-10T01:10:00.140Z,99.99
2018-09-10T01:11:00.046Z,99.99
2018-09-10T01:12:00.104Z,99.99
2018-09-10T01:13:00.175Z,99.99
2018-09-10T01:14:00.108Z,99.99
2018-09-10T01:15:00.173Z,99.99
2018-09-10T01:16:00.104Z,99.99
2018-09-10T01:17:00.110Z,99.99
2018-09-10T01:18:00.103Z,99.99
2018-09-10T01:19:00.103Z,99.99
2018-09-10T01:20:00.181Z,99.99
2018-09-10T01:21:00.060Z,99.99
2018-09-10T01:22:00.149Z,99.99
2018-09-10T01:23:00.087Z,99.99
2018-09-10T01:24:00.131Z,99.99
2018-09-10T01:25:00.056Z,99.99
2018-09-10T01:26:00.040Z,99.99
2018-09-10T01:27:00.173Z,99.99
2018-09-10T01:28:00.151Z,99.99
2018-09-10T01:29:00.087Z,99.99
2018-09-10T01:30:00.063Z,99.99
2018-09-10T01:31:00.172Z,99.99
2018-09-10T01:32:00.124Z,99.99
2018-09-10T01:33:00.200Z,99.99
2018-09-10T01:34:00.117Z,99.99
2018-09-10T01:35:00.204Z,99.99
2018-09-10T01:36:00.197Z,99.99
2018-09-10T01:37:00.122Z,99.99
2018-09-10T01:38:00.120Z,99.99
2018-09-10T01:39:00.192Z,99.99
2018-09-10T01:40:00.194Z,99.99
2018-09-10T01:41:00.125Z,99.99
2018-09-10T01:42:00.180Z,99.99
2018-09-10T01:43:00.093Z,99.99
2018-09-10T01:44:00.185Z,99.99
2018-09-10T01:45:00.256Z,99.99
2018-09-10T01:46:00.100Z,99.99
2018-09-10T01:47:00.119Z,99.99
2018-09-10T01:48:00.186Z,99.99
2018-09-10T01:49:00.183Z,99.99
2018-09-10T01:50:00.127Z,99.99
2018-09-10T01:51:00.164Z,99.99
2018-09-10T01:52:00.151Z,99.99
2018-09-10T01:53:00.134Z,99.99
2018-09-10T01:54:00.206Z,99.99
2018-09-10T01:55:00.204Z,99.99
2018-09-10T01:56:00.134Z,99.99
2018-09-10T01:57:00.149Z,99.99
2018-09-10T01:58:00.134Z,99.99
2018-09-10T01:59:00.207Z,99.99
2018-09-10T02:00:00.224Z,99.99
2018-09-10T02:01:00.132Z,99.99
2018-09-10T02:02:00.211Z,99.99
2018-09-10T02:03:00.214Z,99.99
2018-09-10T02:04:00.133Z,99.99
2018-09-10T02:05:00.215Z,99.99
2018-09-10T02:06:00.142Z,99.99
2018-09-10T02:07:00.211Z,99.99
2018-09-10T02:08:00.139Z,99.99
2018-09-10T02:09:00.212Z,99.99
2018-09-10T02:10:00.214Z,99.99
2018-09-10T02:11:00.151Z,99.99
2018-09-10T02:12:00.111Z,99.99
2018-09-10T02:13:00.147Z,99.99
2018-09-10T02:14:00.208Z,99.99
2018-09-10T02:15:00.273Z,99.99
2018-09-10T02:16:00.098Z,99.99
2018-09-10T02:17:00.131Z,99.99
2018-09-10T02:18:00.171Z,99.99
2018-09-10T02:19:00.115Z,99.99
2018-09-10T02:20:00.094Z,99.99
2018-09-10T02:21:00.189Z,99.99
2018-09-10T02:22:00.173Z,99.99
2018-09-10T02:23:00.184Z,99.99
2018-09-10T02:24:00.115Z,99.99
2018-09-10T02:25:00.092Z,99.99
2018-09-10T02:26:00.107Z,99.99
2018-09-10T02:27:00.182Z,99.99
2018-09-10T02:28:00.156Z,99.99
2018-09-10T02:29:00.173Z,99.99
2018-09-10T02:30:00.155Z,99.99
2018-09-10T02:31:00.088Z,99.99
2018-09-10T02:32:00.113Z,99.99
2018-09-10T02:33:00.156Z,99.99
2018-09-10T02:34:00.114Z,99.99
2018-09-10T02:35:00.120Z,99.99
2018-09-10T02:36:00.114Z,99.99
2018-09-10T02:37:00.096Z,99.99
2018-09-10T02:38:00.193Z,99.99
2018-09-10T02:39:00.192Z,99.99
2018-09-10T02:40:00.191Z,99.99
2018-09-10T02:41:00.116Z,99.99
2018-09-10T02:42:00.142Z,99.99
2018-09-10T02:43:00.135Z,99.99
2018-09-10T02:44:00.228Z,99.99
2018-09-10T02:45:00.119Z,99.99
2018-09-10T02:46:00.167Z,99.99
2018-09-10T02:47:00.115Z,99.99
2018-09-10T02:48:00.209Z,99.99
2018-09-10T02:49:00.232Z,99.99
2018-09-10T02:50:00.226Z,99.99
2018-09-10T02:51:00.149Z,99.99
2018-09-10T02:52:00.114Z,99.99
2018-09-10T02:53:00.148Z,99.99
2018-09-10T02:54:00.149Z,99.99
2018-09-10T02:55:00.081Z,99.99
2018-09-10T02:56:00.123Z,99.99
2018-09-10T02:57:00.073Z,99.99
2018-09-10T02:58:00.153Z,99.99
2018-09-10T02:59:00.102Z,99.99
2018-09-10T03:00:00.069Z,99.99
2018-09-10T03:01:00.155Z,99.99
2018-09-10T03:02:00.183Z,99.99
2018-09-10T03:03:00.332Z,99.99
2018-09-10T03:04:00.181Z,99.99
2018-09-10T03:05:00.254Z,99.99
2018-09-10T03:06:00.254Z,99.99
2018-09-10T03:07:00.189Z,99.99
2018-09-10T03:08:00.320Z,99.99
2018-09-10T03:09:00.258Z,99.99
2018-09-10T03:10:00.181Z,99.99
2018-09-10T03:11:00.256Z,99.99
2018-09-10T03:12:00.247Z,99.99
2018-09-10T03:13:00.247Z,99.99
2018-09-10T03:14:00.163Z,99.99
2018-09-10T03:15:00.165Z,99.99
2018-09-10T03:16:00.138Z,99.99
2018-09-10T03:17:00.214Z,99.99
2018-09-10T03:18:00.364Z,99.99
2018-09-10T03:19:00.122Z,99.99
2018-09-10T03:20:00.145Z,99.99
2018-09-10T03:21:00.250Z,99.99
2018-09-10T03:22:00.193Z,99.99
2018-09-10T03:23:00.268Z,99.99
2018-09-10T03:24:00.236Z,99.99
2018-09-10T03:25:00.267Z,99.99
2018-09-10T03:26:00.198Z,99.99
2018-09-10T03:27:00.269Z,99.99
2018-09-10T03:28:00.267Z,99.99
2018-09-10T03:29:00.268Z,99.99
2018-09-10T03:30:00.272Z,99.99
2018-09-10T03:31:00.209Z,99.99
2018-09-10T03:32:00.270Z,99.99
2018-09-10T03:33:00.273Z,99.99
2018-09-10T03:34:00.198Z,99.99
2018-09-10T03:35:00.272Z,99.99
2018-09-10T03:36:00.276Z,99.99
2018-09-10T03:37:00.276Z,99.99
2018-09-10T03:38:00.206Z,99.99
2018-09-10T03:39:00.345Z,99.99
2018-09-10T03:40:00.202Z,99.99
2018-09-10T03:41:00.276Z,99.99
2018-09-10T03:42:00.207Z,99.99
2018-09-10T03:43:00.284Z,99.99
2018-09-10T03:44:00.205Z,99.99
2018-09-10T03:45:00.284Z,99.99
2018-09-10T03:46:00.282Z,99.99
2018-09-10T03:47:00.219Z,99.99
2018-09-10T03:48:00.282Z,99.99
2018-09-10T03:49:00.174Z,99.99
2018-09-10T03:50:00.211Z,99.99
2018-09-10T03:51:00.214Z,99.99
2018-09-10T03:52:00.240Z,99.99
2018-09-10T03:53:00.168Z,99.99
2018-09-10T03:54:00.240Z,99.99
2018-09-10T03:55:00.316Z,99.99
2018-09-10T03:56:00.247Z,99.99
2018-09-10T03:57:00.175Z,99.99
2018-09-10T03:58:00.169Z,99.99
2018-09-10T03:59:00.255Z,99.99
2018-09-10T04:00:00.251Z,99.99
2018-09-10T04:01:00.247Z,99.99
2018-09-10T04:02:00.291Z,99.99
2018-09-10T04:03:00.290Z,99.99
2018-09-10T04:04:00.307Z,99.99
2018-09-10T04:05:00.293Z,99.99
2018-09-10T04:06:00.216Z,99.99
2018-09-10T04:07:00.356Z,99.99
2018-09-10T04:08:00.298Z,99.99
2018-09-10T04:09:00.228Z,99.99
2018-09-10T04:10:00.358Z,99.99
2018-09-10T04:11:00.301Z,99.99
2018-09-10T04:12:00.202Z,99.99
2018-09-10T04:13:00.203Z,99.99
2018-09-10T04:14:00.232Z,99.99
2018-09-10T04:15:00.241Z,99.99
2018-09-10T04:16:00.223Z,99.99
2018-09-10T04:17:00.166Z,99.99
2018-09-10T04:18:00.177Z,99.99
2018-09-10T04:19:00.161Z,99.99
2018-09-10T04:20:00.116Z,99.99
2018-09-10T04:21:00.174Z,99.99
2018-09-10T04:22:00.241Z,99.99
2018-09-10T04:23:00.244Z,99.99
2018-09-10T04:24:00.314Z,99.99
2018-09-10T04:25:00.308Z,99.99
2018-09-10T04:26:00.372Z,99.99
2018-09-10T04:27:00.242Z,99.99
2018-09-10T04:28:00.254Z,99.99
2018-09-10T04:29:00.247Z,99.99
2018-09-10T04:30:00.474Z,99.99
2018-09-10T04:31:00.239Z,99.99
2018-09-10T04:32:00.500Z,99.99
2018-09-10T04:33:00.314Z,99.99
2018-09-10T04:34:00.217Z,99.99
2018-09-10T04:35:00.264Z,99.99
2018-09-10T04:36:00.243Z,99.99
2018-09-10T04:37:00.255Z,99.99
2018-09-10T04:38:00.253Z,99.99
2018-09-10T04:39:00.191Z,99.99
2018-09-10T04:40:00.307Z,99.99
2018-09-10T04:41:00.220Z,99.99
2018-09-10T04:42:00.225Z,99.99
2018-09-10T04:43:00.223Z,99.99
2018-09-10T04:44:00.275Z,99.99
2018-09-10T04:45:00.271Z,99.99
2018-09-10T04:46:00.192Z,99.99
2018-09-10T04:47:00.217Z,99.99
2018-09-10T04:48:00.222Z,99.99
2018-09-10T04:49:00.191Z,99.99
2018-09-10T04:50:00.344Z,99.99
2018-09-10T04:51:00.325Z,99.99
2018-09-10T04:52:00.256Z,99.99
2018-09-10T04:53:00.335Z,99.99
2018-09-10T04:54:00.257Z,99.99
2018-09-10T04:55:00.271Z,99.99
2018-09-10T04:56:00.264Z,99.99
2018-09-10T04:57:00.264Z,99.99
2018-09-10T04:58:00.343Z,99.99
2018-09-10T04:59:00.263Z,99.99
2018-09-10T05:00:00.335Z,99.99
2018-09-10T05:01:00.264Z,99.99
2018-09-10T05:02:00.336Z,99.99
2018-09-10T05:03:00.301Z,99.99
2018-09-10T05:04:00.321Z,99.99
2018-09-10T05:05:00.259Z,99.99
2018-09-10T05:06:00.210Z,99.99
2018-09-10T05:07:00.197Z,99.99
2018-09-10T05:08:00.283Z,99.99
2018-09-10T05:09:00.328Z,99.99
2018-09-10T05:10:00.326Z,99.99
2018-09-10T05:11:00.304Z,99.99
2018-09-10T05:12:00.272Z,99.99
2018-09-10T05:13:00.263Z,99.99
2018-09-10T05:14:00.344Z,99.99
2018-09-10T05:15:00.318Z,99.99
2018-09-10T05:16:00.277Z,99.99
2018-09-10T05:17:00.343Z,99.99
2018-09-10T05:18:00.302Z,99.99
2018-09-10T05:19:00.345Z,99.99
2018-09-10T05:20:00.275Z,99.99
2018-09-10T05:21:00.298Z,99.99
2018-09-10T05:22:00.393Z,99.99
2018-09-10T05:23:00.274Z,99.99
2018-09-10T05:24:00.276Z,99.99
2018-09-10T05:25:00.278Z,99.99
2018-09-10T05:26:00.352Z,99.99
2018-09-10T05:27:00.351Z,99.99
2018-09-10T05:28:00.341Z,99.99
2018-09-10T05:29:00.351Z,99.99
2018-09-10T05:30:00.277Z,99.99
2018-09-10T05:31:00.354Z,99.99
2018-09-10T05:32:00.281Z,99.99
2018-09-10T05:33:00.259Z,99.99
2018-09-10T05:34:00.388Z,99.99
2018-09-10T05:35:00.209Z,99.99
2018-09-10T05:36:00.305Z,99.99
2018-09-10T05:37:00.319Z,99.99
2018-09-10T05:38:00.212Z,99.96
2018-09-10T05:39:00.222Z,99.23
2018-09-10T05:40:00.290Z,98.31
2018-09-10T05:41:00.238Z,97.74
2018-09-10T05:42:00.321Z,96.88
2018-09-10T05:43:00.346Z,95.98
2018-09-10T05:44:00.325Z,95.18
2018-09-10T05:45:00.325Z,94.21
2018-09-10T05:46:00.267Z,93.48
2018-09-10T05:47:00.515Z,92.97
2018-09-10T05:48:00.350Z,92.65
2018-09-10T05:49:00.283Z,92.30
2018-09-10T05:50:00.305Z,92.30
2018-09-10T05:51:00.306Z,92.22
2018-09-10T05:52:00.330Z,92.16
2018-09-10T05:53:00.269Z,91.76
2018-09-10T05:54:00.244Z,91.68
2018-09-10T05:55:00.369Z,91.30
2018-09-10T05:56:00.235Z,90.80
2018-09-10T05:57:00.355Z,90.58
2018-09-10T05:58:00.372Z,90.28
2018-09-10T05:59:00.256Z,89.97
2018-09-10T06:00:00.250Z,89.51
2018-09-10T06:01:00.273Z,89.43
2018-09-10T06:02:00.374Z,89.24
2018-09-10T06:03:00.310Z,88.87
2018-09-10T06:04:00.380Z,88.65
2018-09-10T06:05:00.380Z,88.84
2018-09-10T06:06:00.310Z,88.65
2018-09-10T06:07:00.383Z,88.89
2018-09-10T06:08:00.304Z,89.03
2018-09-10T06:09:00.389Z,89.45
2018-09-10T06:10:00.317Z,89.91
2018-09-10T06:11:00.386Z,90.09
2018-09-10T06:12:00.389Z,90.34
2018-09-10T06:13:00.307Z,90.55
2018-09-10T06:14:00.383Z,90.74
2018-09-10T06:15:00.313Z,91.01
2018-09-10T06:16:00.434Z,91.01
2018-09-10T06:17:00.392Z,90.82
2018-09-10T06:18:00.314Z,90.61
2018-09-10T06:19:00.387Z,90.61
2018-09-10T06:20:00.315Z,90.71
2018-09-10T06:21:00.387Z,90.47
2018-09-10T06:22:00.272Z,90.71
2018-09-10T06:23:00.378Z,90.61
2018-09-10T06:24:00.379Z,90.50
2018-09-10T06:25:00.381Z,90.58
2018-09-10T06:26:00.321Z,90.61
2018-09-10T06:27:00.304Z,90.26
2018-09-10T06:28:00.293Z,90.20
2018-09-10T06:29:00.393Z,89.35
2018-09-10T06:30:00.381Z,88.84
2018-09-10T06:31:00.363Z,88.62
2018-09-10T06:32:00.398Z,88.39
2018-09-10T06:33:00.397Z,87.77
2018-09-10T06:34:00.358Z,87.82
2018-09-10T06:35:00.402Z,87.16
2018-09-10T06:36:00.401Z,87.29
2018-09-10T06:37:00.339Z,86.87
2018-09-10T06:38:00.401Z,85.80
2018-09-10T06:39:00.328Z,86.04
2018-09-10T06:40:00.327Z,86.09
2018-09-10T06:41:00.404Z,85.91
2018-09-10T06:42:00.349Z,85.61
2018-09-10T06:43:00.301Z,85.69
2018-09-10T06:44:00.301Z,85.72
2018-09-10T06:45:00.407Z,85.27
2018-09-10T06:46:00.390Z,85.24
2018-09-10T06:47:00.310Z,84.66
2018-09-10T06:48:00.286Z,84.58
2018-09-10T06:49:00.350Z,84.76
2018-09-10T06:50:00.375Z,85.03
2018-09-10T06:51:00.313Z,84.66
2018-09-10T06:52:00.340Z,84.71
2018-09-10T06:53:00.413Z,84.97
2018-09-10T06:54:00.337Z,84.84
2018-09-10T06:55:00.413Z,85.21
2018-09-10T06:56:00.336Z,84.79
2018-09-10T06:57:00.375Z,85.03
2018-09-10T06:58:00.345Z,85.08
2018-09-10T06:59:00.417Z,85.03
2018-09-10T07:00:00.474Z,85.19
2018-09-10T07:01:00.417Z,84.87
2018-09-10T07:02:00.298Z,85.03
2018-09-10T07:03:00.347Z,83.38
2018-09-10T07:04:00.418Z,82.56
2018-09-10T07:05:00.419Z,82.96
2018-09-10T07:06:00.344Z,83.20
2018-09-10T07:07:00.385Z,82.06
2018-09-10T07:08:00.427Z,81.95
2018-09-10T07:09:00.347Z,82.72
2018-09-10T07:10:00.357Z,81.45
2018-09-10T07:11:00.430Z,81.40
2018-09-10T07:12:00.353Z,79.52
2018-09-10T07:13:00.393Z,77.75
2018-09-10T07:14:00.424Z,77.51
2018-09-10T07:15:00.351Z,78.33
2018-09-10T07:16:00.416Z,76.81
2018-09-10T07:17:00.387Z,76.04
2018-09-10T07:18:00.388Z,75.13
2018-09-10T07:19:00.402Z,75.34
2018-09-10T07:20:00.332Z,75.02
2018-09-10T07:21:00.369Z,74.52
2018-09-10T07:22:00.400Z,73.82
2018-09-10T07:23:00.331Z,73.85
2018-09-10T07:24:00.303Z,73.03
2018-09-10T07:25:00.333Z,73.58
2018-09-10T07:26:00.294Z,73.27
2018-09-10T07:27:00.310Z,72.72
2018-09-10T07:28:00.378Z,72.88
2018-09-10T07:29:00.314Z,73.08
2018-09-10T07:30:00.385Z,72.72
2018-09-10T07:31:00.401Z,73.53
2018-09-10T07:32:00.313Z,73.08
2018-09-10T07:33:00.316Z,73.42
2018-09-10T07:34:00.323Z,72.51
2018-09-10T07:35:00.479Z,72.75
2018-09-10T07:36:00.413Z,72.38
2018-09-10T07:37:00.428Z,72.61
2018-09-10T07:38:00.388Z,72.61
2018-09-10T07:39:00.345Z,72.72
2018-09-10T07:40:00.412Z,72.77
2018-09-10T07:41:00.408Z,73.30
2018-09-10T07:42:00.444Z,73.37
2018-09-10T07:43:00.366Z,72.64
2018-09-10T07:44:00.576Z,71.75
2018-09-10T07:45:00.444Z,72.09
2018-09-10T07:46:00.372Z,72.53
2018-09-10T07:47:00.450Z,72.20
2018-09-10T07:48:00.374Z,71.81
2018-09-10T07:49:00.488Z,71.78
2018-09-10T07:50:00.451Z,71.67
2018-09-10T07:51:00.380Z,71.65
2018-09-10T07:52:00.474Z,71.78
2018-09-10T07:53:00.331Z,71.00
2018-09-10T07:54:00.390Z,71.15
2018-09-10T07:55:00.374Z,70.97
2018-09-10T07:56:00.337Z,70.66
2018-09-10T07:57:00.426Z,70.58
2018-09-10T07:58:00.433Z,71.15
2018-09-10T07:59:00.337Z,71.54
2018-09-10T08:00:00.387Z,71.07
2018-09-10T08:01:00.456Z,70.74
2018-09-10T08:02:00.447Z,71.00
2018-09-10T08:03:00.482Z,69.90
2018-09-10T08:04:00.385Z,69.46
2018-09-10T08:05:00.388Z,69.10
2018-09-10T08:06:00.384Z,69.12
2018-09-10T08:07:00.462Z,69.18
2018-09-10T08:08:00.417Z,68.84
2018-09-10T08:09:00.500Z,68.58
2018-09-10T08:10:00.389Z,68.01
2018-09-10T08:11:00.391Z,67.62
2018-09-10T08:12:00.472Z,67.91
2018-09-10T08:13:00.379Z,67.18
2018-09-10T08:14:00.391Z,67.75
2018-09-10T08:15:00.466Z,67.64
2018-09-10T08:16:00.390Z,68.11
2018-09-10T08:17:00.392Z,68.50
2018-09-10T08:18:00.394Z,68.04
2018-09-10T08:19:00.512Z,68.94
2018-09-10T08:20:00.398Z,68.40
2018-09-10T08:21:00.470Z,68.50
2018-09-10T08:22:00.385Z,68.55
2018-09-10T08:23:00.412Z,68.32
2018-09-10T08:24:00.372Z,68.08
2018-09-10T08:25:00.369Z,68.37
2018-09-10T08:26:00.357Z,67.70
2018-09-10T08:27:00.415Z,68.04
2018-09-10T08:28:00.381Z,68.16
2018-09-10T08:29:00.339Z,68.50
2018-09-10T08:30:00.377Z,68.71
2018-09-10T08:31:00.436Z,68.19
2018-09-10T08:32:00.363Z,67.67
2018-09-10T08:33:00.330Z,67.60
2018-09-10T08:34:00.379Z,67.83
2018-09-10T08:35:00.437Z,67.67
2018-09-10T08:36:00.424Z,67.20
2018-09-10T08:37:00.460Z,65.22
2018-09-10T08:38:00.379Z,65.11
2018-09-10T08:39:00.401Z,64.95
2018-09-10T08:40:00.338Z,64.31
2018-09-10T08:41:00.431Z,62.90
2018-09-10T08:42:00.381Z,61.91
2018-09-10T08:43:00.490Z,62.61
2018-09-10T08:44:00.490Z,63.49
2018-09-10T08:45:00.442Z,62.25
2018-09-10T08:46:00.493Z,59.92
2018-09-10T08:47:00.491Z,59.92
2018-09-10T08:48:00.415Z,59.48
2018-09-10T08:49:00.416Z,59.56
2018-09-10T08:50:00.501Z,59.28
2018-09-10T08:51:00.448Z,59.53
2018-09-10T08:52:00.493Z,58.33
2018-09-10T08:53:00.466Z,58.17
2018-09-10T08:54:00.588Z,56.57
2018-09-10T08:55:00.586Z,55.98
2018-09-10T08:56:00.739Z,56.16
2018-09-10T08:57:00.382Z,56.13
2018-09-10T08:58:00.381Z,55.09
2018-09-10T08:59:00.484Z,58.07
2018-09-10T09:00:00.369Z,54.30
2018-09-10T09:01:00.426Z,54.23
2018-09-10T09:02:00.488Z,55.22
2018-09-10T09:03:00.443Z,55.30
2018-09-10T09:04:00.356Z,54.86
2018-09-10T09:05:00.301Z,55.47
2018-09-10T09:06:00.443Z,56.46
2018-09-10T09:07:00.332Z,56.49
2018-09-10T09:08:00.383Z,56.97
2018-09-10T09:09:00.376Z,57.95
2018-09-10T09:10:00.408Z,54.56
2018-09-10T09:11:00.405Z,53.01
2018-09-10T09:12:00.363Z,52.50
2018-09-10T09:13:00.511Z,52.32
2018-09-10T09:14:00.436Z,52.81
2018-09-10T09:15:00.511Z,52.17
2018-09-10T09:16:00.438Z,52.73
2018-09-10T09:17:00.510Z,52.70
2018-09-10T09:18:00.445Z,52.37
2018-09-10T09:19:00.513Z,55.50
2018-09-10T09:20:00.516Z,52.57
2018-09-10T09:21:00.445Z,52.63
2018-09-10T09:22:00.516Z,53.62
2018-09-10T09:23:00.451Z,54.94
2018-09-10T09:24:00.518Z,54.83
2018-09-10T09:25:00.440Z,54.66
2018-09-10T09:26:00.445Z,56.00
2018-09-10T09:27:00.522Z,56.59
2018-09-10T09:28:00.496Z,55.80
2018-09-10T09:29:00.530Z,56.74
2018-09-10T09:30:00.489Z,54.45
2018-09-10T09:31:00.449Z,56.33
2018-09-10T09:32:00.530Z,56.54
2018-09-10T09:33:00.564Z,55.14
2018-09-10T09:34:00.570Z,54.20
2018-09-10T09:35:00.512Z,52.57
2018-09-10T09:36:00.498Z,51.46
2018-09-10T09:37:00.529Z,53.09
2018-09-10T09:38:00.463Z,53.44
2018-09-10T09:39:00.556Z,51.92
2018-09-10T09:40:00.476Z,51.19
2018-09-10T09:41:00.594Z,50.38
2018-09-10T09:42:00.453Z,52.75
2018-09-10T09:43:00.455Z,56.77
2018-09-10T09:44:00.469Z,51.59
2018-09-10T09:45:00.457Z,48.44
2018-09-10T09:46:00.508Z,51.97
2018-09-10T09:47:00.534Z,51.26
2018-09-10T09:48:00.474Z,49.57
2018-09-10T09:49:00.535Z,48.64
2018-09-10T09:50:00.541Z,49.37
2018-09-10T09:51:00.596Z,52.93
2018-09-10T09:52:00.468Z,48.81
2018-09-10T09:53:00.482Z,50.02
2018-09-10T09:54:00.481Z,49.49
2018-09-10T09:55:00.543Z,46.78
2018-09-10T09:56:00.583Z,47.08
2018-09-10T09:57:00.588Z,46.15
2018-09-10T09:58:00.602Z,46.55
2018-09-10T09:59:00.516Z,46.63
2018-09-10T10:00:00.569Z,46.70
2018-09-10T10:01:00.508Z,46.50
2018-09-10T10:02:00.474Z,47.33
2018-09-10T10:03:00.578Z,49.57
2018-09-10T10:04:00.593Z,47.98
2018-09-10T10:05:00.551Z,49.39
2018-09-10T10:06:00.555Z,49.52
2018-09-10T10:07:00.459Z,48.31
2018-09-10T10:08:00.564Z,47.86
2018-09-10T10:09:00.496Z,47.86
2018-09-10T10:10:00.593Z,47.51
2018-09-10T10:11:00.581Z,48.36
2018-09-10T10:12:00.627Z,48.79
2018-09-10T10:13:00.462Z,46.88
2018-09-10T10:14:00.584Z,47.13
2018-09-10T10:15:00.517Z,49.44
2018-09-10T10:16:00.600Z,51.39
2018-09-10T10:17:00.497Z,51.16
2018-09-10T10:18:00.594Z,52.04
2018-09-10T10:19:00.561Z,47.51
2018-09-10T10:20:00.503Z,46.15
2018-09-10T10:21:00.505Z,46.50
2018-09-10T10:22:00.578Z,45.77
2018-09-10T10:23:00.469Z,46.23
2018-09-10T10:24:00.565Z,47.06
2018-09-10T10:25:00.569Z,46.70
2018-09-10T10:26:00.482Z,46.75
2018-09-10T10:27:00.573Z,47.38
2018-09-10T10:28:00.544Z,46.15
2018-09-10T10:29:00.580Z,48.14
2018-09-10T10:30:00.473Z,47.31
2018-09-10T10:31:00.594Z,47.06
2018-09-10T10:32:00.547Z,46.60
2018-09-10T10:33:00.529Z,46.63
2018-09-10T10:34:00.508Z,48.16
2018-09-10T10:35:00.551Z,48.72
2018-09-10T10:36:00.617Z,49.80
2018-09-10T10:37:00.606Z,47.36
2018-09-10T10:38:00.531Z,47.40
2018-09-10T10:39:00.540Z,50.35
2018-09-10T10:40:00.603Z,46.85
2018-09-10T10:41:00.611Z,48.34
2018-09-10T10:42:00.517Z,47.38
2018-09-10T10:43:00.589Z,46.70
2018-09-10T10:44:00.472Z,46.83
2018-09-10T10:45:00.524Z,49.44
2018-09-10T10:46:00.519Z,47.73
2018-09-10T10:47:00.522Z,49.32
2018-09-10T10:48:00.599Z,47.31
2018-09-10T10:49:00.516Z,51.08
2018-09-10T10:50:00.477Z,49.67
2018-09-10T10:51:00.604Z,47.13
2018-09-10T10:52:00.529Z,48.92
2018-09-10T10:53:00.587Z,48.16
2018-09-10T10:54:00.524Z,48.39
2018-09-10T10:55:00.525Z,49.87
2018-09-10T10:56:00.595Z,47.08
2018-09-10T10:57:00.483Z,47.81
2018-09-10T10:58:00.593Z,50.10
2018-09-10T10:59:00.529Z,48.54
2018-09-10T11:00:00.523Z,48.14
2018-09-10T11:01:00.618Z,48.31
2018-09-10T11:02:00.532Z,47.10
2018-09-10T11:03:00.604Z,46.48
2018-09-10T11:04:00.611Z,47.78
2018-09-10T11:05:00.535Z,46.05
2018-09-10T11:06:00.602Z,46.25
2018-09-10T11:07:00.596Z,45.65
2018-09-10T11:08:00.601Z,45.52
2018-09-10T11:09:00.532Z,45.52
2018-09-10T11:10:00.605Z,47.23
2018-09-10T11:11:00.556Z,45.82
2018-09-10T11:12:00.557Z,48.28
2018-09-10T11:13:00.595Z,47.00
2018-09-10T11:14:00.476Z,48.72
2018-09-10T11:15:00.592Z,46.12
2018-09-10T11:16:00.598Z,46.48
2018-09-10T11:17:00.604Z,47.03
2018-09-10T11:18:00.564Z,46.40
2018-09-10T11:19:00.592Z,48.08
2018-09-10T11:20:00.560Z,48.81
2018-09-10T11:21:00.468Z,46.90
2018-09-10T11:22:00.532Z,47.65
2018-09-10T11:23:00.539Z,49.32
2018-09-10T11:24:00.552Z,48.36
2018-09-10T11:25:00.545Z,47.91
2018-09-10T11:26:00.544Z,48.64
2018-09-10T11:27:00.614Z,48.11
2018-09-10T11:28:00.545Z,48.26
2018-09-10T11:29:00.587Z,48.01
2018-09-10T11:30:00.550Z,46.98
2018-09-10T11:31:00.546Z,47.56
2018-09-10T11:32:00.551Z,48.14
2018-09-10T11:33:00.612Z,46.75
2018-09-10T11:34:00.544Z,46.27
2018-09-10T11:35:00.533Z,47.00
2018-09-10T11:36:00.538Z,46.63
2018-09-10T11:37:00.520Z,46.65
2018-09-10T11:38:00.513Z,46.63
2018-09-10T11:39:00.605Z,47.73
2018-09-10T11:40:00.547Z,46.20
2018-09-10T11:41:00.524Z,46.25
2018-09-10T11:42:00.542Z,47.00
2018-09-10T11:43:00.537Z,46.52
2018-09-10T11:44:00.528Z,46.27
2018-09-10T11:45:00.593Z,46.55
2018-09-10T11:46:00.637Z,46.68
2018-09-10T11:47:00.626Z,45.85
2018-09-10T11:48:00.623Z,46.58
2018-09-10T11:49:00.593Z,47.51
2018-09-10T11:50:00.611Z,48.14
2018-09-10T11:51:00.532Z,47.91
2018-09-10T11:52:00.626Z,47.98
2018-09-10T11:53:00.650Z,48.36
2018-09-10T11:54:00.573Z,48.36
2018-09-10T11:55:00.595Z,48.44
2018-09-10T11:56:00.639Z,49.19
2018-09-10T11:57:00.644Z,49.85
2018-09-10T11:58:00.556Z,48.46
2018-09-10T11:59:00.694Z,49.34
2018-09-10T12:00:00.633Z,49.14
2018-09-10T12:01:00.613Z,48.19
2018-09-10T12:02:00.586Z,48.48
2018-09-10T12:03:00.642Z,50.00
2018-09-10T12:04:00.713Z,48.74
2018-09-10T12:05:00.703Z,48.99
2018-09-10T12:06:00.582Z,47.43
2018-09-10T12:07:00.571Z,48.19
2018-09-10T12:08:00.646Z,51.11
2018-09-10T12:09:00.647Z,48.11
2018-09-10T12:10:00.602Z,47.53
2018-09-10T12:11:00.578Z,50.98
2018-09-10T12:12:00.647Z,47.26
2018-09-10T12:13:00.577Z,47.00
2018-09-10T12:14:00.647Z,47.76
2018-09-10T12:15:00.581Z,47.76
2018-09-10T12:16:00.584Z,48.61
2018-09-10T12:17:00.589Z,49.52
2018-09-10T12:18:00.592Z,49.69
2018-09-10T12:19:00.583Z,50.48
2018-09-10T12:20:00.586Z,50.02
2018-09-10T12:21:00.692Z,50.33
2018-09-10T12:22:00.582Z,50.96
2018-09-10T12:23:00.584Z,51.19
2018-09-10T12:24:00.717Z,50.58
2018-09-10T12:25:00.664Z,51.44
2018-09-10T12:26:00.582Z,51.59
2018-09-10T12:27:00.655Z,51.57
2018-09-10T12:28:00.653Z,52.12
2018-09-10T12:29:00.667Z,52.15
2018-09-10T12:30:00.662Z,52.45
2018-09-10T12:31:00.594Z,53.16
2018-09-10T12:32:00.656Z,51.87
2018-09-10T12:33:00.643Z,52.15
2018-09-10T12:34:00.652Z,51.95
2018-09-10T12:35:00.560Z,52.22
2018-09-10T12:36:00.524Z,51.69
2018-09-10T12:37:00.618Z,52.22
2018-09-10T12:38:00.673Z,51.84
2018-09-10T12:39:00.643Z,51.89
2018-09-10T12:40:00.561Z,50.80
2018-09-10T12:41:00.586Z,51.62
2018-09-10T12:42:00.594Z,51.87
2018-09-10T12:43:00.681Z,51.33
2018-09-10T12:44:00.667Z,51.01
2018-09-10T12:45:00.674Z,51.31
2018-09-10T12:46:00.670Z,52.22
2018-09-10T12:47:00.602Z,52.73
2018-09-10T12:48:00.669Z,52.12
2018-09-10T12:49:00.610Z,52.65
2018-09-10T12:50:00.677Z,53.14
2018-09-10T12:51:00.607Z,53.34
2018-09-10T12:52:00.670Z,53.87
2018-09-10T12:53:00.600Z,53.92